Time,TemperatureF,DewpointF,PressureIn,WindDirection,WindDirectionDegrees,WindSpeedMPH,WindSpeedGustMPH,Humidity,HourlyPrecipIn,Conditions,Clouds,dailyrainin,SolarRadiationWatts/m^2,SoftwareType,DateUTC
2013-04-19 00:02:00,63.0,63.0,-100.00,NNE,28,0.0,0.0,100,0.02,,,0.28,0.000000,,2013-04-19 10:02:00,
2013-04-19 00:13:00,63.0,63.0,-100.00,NNE,28,0.0,0.0,100,0.02,,,0.28,0.000000,,2013-04-19 10:13:00,
2013-04-19 00:23:00,63.0,63.0,-100.00,NNE,28,0.0,0.0,100,0.02,,,0.28,0.000000,,2013-04-19 10:23:00,
2013-04-19 00:33:00,63.0,63.0,-100.00,NNE,28,0.0,0.0,100,0.02,,,0.28,0.000000,,2013-04-19 10:33:00,
2013-04-19 01:02:00,63.0,63.0,-100.00,NNE,24,0.0,0.0,100,0.00,,,0.28,0.000000,,2013-04-19 11:02:00,
2013-04-19 01:11:00,63.0,63.0,-100.00,NNE,24,0.0,0.0,100,0.00,,,0.28,0.000000,,2013-04-19 11:11:00,
2013-04-19 01:21:00,63.0,63.0,-100.00,NNE,24,0.0,0.0,100,0.00,,,0.28,0.000000,,2013-04-19 11:21:00,
2013-04-19 01:32:00,63.0,63.0,-100.00,NNE,24,0.0,0.0,100,0.00,,,0.28,0.000000,,2013-04-19 11:32:00,
2013-04-19 02:02:00,63.0,63.0,-100.00,NNE,15,0.0,0.0,100,0.00,,,0.28,0.000000,,2013-04-19 12:02:00,
2013-04-19 02:12:00,63.0,63.0,-100.00,NNE,15,0.0,0.0,100,0.00,,,0.28,0.000000,,2013-04-19 12:12:00,
2013-04-19 02:22:00,63.0,63.0,-100.00,NNE,15,0.0,0.0,100,0.00,,,0.28,0.000000,,2013-04-19 12:22:00,
2013-04-19 02:32:00,63.0,63.0,-100.00,NNE,15,0.0,0.0,100,0.00,,,0.28,0.000000,,2013-04-19 12:32:00,
2013-04-19 03:01:00,63.0,63.0,-100.00,NNE,18,0.0,0.0,100,0.00,,,0.24,0.000000,,2013-04-19 13:01:00,
2013-04-19 03:11:00,63.0,63.0,-100.00,NNE,18,0.0,0.0,100,0.00,,,0.24,0.000000,,2013-04-19 13:11:00,
2013-04-19 03:21:00,63.0,63.0,-100.00,NNE,18,0.0,0.0,100,0.00,,,0.24,0.000000,,2013-04-19 13:21:00,
2013-04-19 03:32:00,63.0,63.0,-100.00,NNE,18,0.0,0.0,100,0.00,,,0.24,0.000000,,2013-04-19 13:32:00,
2013-04-19 04:01:00,63.0,63.0,-100.00,NNE,15,0.0,0.0,100,0.00,,,0.23,0.000000,,2013-04-19 14:01:00,
2013-04-19 04:11:00,63.0,63.0,-100.00,NNE,15,0.0,0.0,100,0.00,,,0.23,0.000000,,2013-04-19 14:11:00,
2013-04-19 04:21:00,63.0,63.0,-100.00,NNE,15,0.0,0.0,100,0.00,,,0.23,0.000000,,2013-04-19 14:21:00,
2013-04-19 04:31:00,63.0,63.0,-100.00,NNE,15,0.0,0.0,100,0.00,,,0.23,0.000000,,2013-04-19 14:31:00,
2013-04-19 05:01:00,63.0,63.0,-100.00,NNE,19,0.0,0.0,100,0.00,,,0.23,0.000000,,2013-04-19 15:01:00,
2013-04-19 05:12:00,63.0,63.0,-100.00,NNE,19,0.0,0.0,100,0.00,,,0.23,0.000000,,2013-04-19 15:12:00,
2013-04-19 05:21:00,63.0,63.0,-100.00,NNE,19,0.0,0.0,100,0.00,,,0.23,0.000000,,2013-04-19 15:21:00,
2013-04-19 05:33:00,63.0,63.0,-100.00,NNE,19,0.0,0.0,100,0.00,,,0.23,0.000000,,2013-04-19 15:33:00,
2013-04-19 06:03:00,63.0,63.0,-100.00,NNE,31,0.0,0.0,100,0.02,,,0.25,0.000000,,2013-04-19 16:03:00,
2013-04-19 06:12:00,63.0,63.0,-100.00,NNE,31,0.0,0.0,100,0.02,,,0.25,0.000000,,2013-04-19 16:12:00,
2013-04-19 06:23:00,63.0,63.0,-100.00,NNE,31,0.0,0.0,100,0.02,,,0.25,0.000000,,2013-04-19 16:23:00,
2013-04-19 06:32:00,63.0,63.0,-100.00,NNE,31,0.0,0.0,100,0.02,,,0.25,0.000000,,2013-04-19 16:32:00,
2013-04-19 07:02:00,63.0,63.0,-100.00,NNE,19,0.0,0.0,100,0.08,,,0.33,0.000000,,2013-04-19 17:02:00,
2013-04-19 07:12:00,63.0,63.0,-100.00,NNE,19,0.0,0.0,100,0.08,,,0.33,0.000000,,2013-04-19 17:12:00,
2013-04-19 07:21:00,63.0,63.0,-100.00,NNE,19,0.0,0.0,100,0.08,,,0.33,0.000000,,2013-04-19 17:21:00,
2013-04-19 07:32:00,63.0,63.0,-100.00,NNE,19,0.0,0.0,100,0.08,,,0.33,0.000000,,2013-04-19 17:32:00,
2013-04-19 08:01:00,64.0,64.0,-100.00,NNE,31,0.0,0.0,100,0.18,,,0.51,0.000000,,2013-04-19 18:01:00,
2013-04-19 08:13:00,64.0,64.0,-100.00,NNE,31,0.0,0.0,100,0.18,,,0.51,0.000000,,2013-04-19 18:13:00,
2013-04-19 08:22:00,64.0,64.0,-100.00,NNE,31,0.0,0.0,100,0.18,,,0.51,0.000000,,2013-04-19 18:22:00,
2013-04-19 08:32:00,64.0,64.0,-100.00,NNE,31,0.0,0.0,100,0.18,,,0.51,0.000000,,2013-04-19 18:32:00,
2013-04-19 09:01:00,64.0,64.0,-100.00,NNE,24,0.0,0.0,100,0.06,,,0.54,0.000000,,2013-04-19 19:01:00,
2013-04-19 09:11:00,64.0,64.0,-100.00,NNE,24,0.0,0.0,100,0.06,,,0.54,0.000000,,2013-04-19 19:11:00,
2013-04-19 09:21:00,64.0,64.0,-100.00,NNE,24,0.0,0.0,100,0.06,,,0.54,0.000000,,2013-04-19 19:21:00,
2013-04-19 09:31:00,64.0,64.0,-100.00,NNE,24,0.0,0.0,100,0.06,,,0.54,0.000000,,2013-04-19 19:31:00,
2013-04-19 10:01:00,64.0,64.0,-100.00,NNE,26,0.0,0.0,100,0.17,,,0.71,0.000000,,2013-04-19 20:01:00,
2013-04-19 10:11:00,64.0,64.0,-100.00,NNE,26,0.0,0.0,100,0.17,,,0.71,0.000000,,2013-04-19 20:11:00,
2013-04-19 10:22:00,64.0,64.0,-100.00,NNE,26,0.0,0.0,100,0.17,,,0.71,0.000000,,2013-04-19 20:22:00,
2013-04-19 10:31:00,64.0,64.0,-100.00,NNE,26,0.0,0.0,100,0.17,,,0.71,0.000000,,2013-04-19 20:31:00,
2013-04-19 11:01:00,64.0,64.0,-100.00,NNE,17,0.0,0.0,100,0.15,,,0.86,0.000000,,2013-04-19 21:01:00,
2013-04-19 11:11:00,64.0,64.0,-100.00,NNE,17,0.0,0.0,100,0.15,,,0.86,0.000000,,2013-04-19 21:11:00,
2013-04-19 11:21:00,64.0,64.0,-100.00,NNE,17,0.0,0.0,100,0.15,,,0.86,0.000000,,2013-04-19 21:21:00,
2013-04-19 11:32:00,64.0,64.0,-100.00,NNE,17,0.0,0.0,100,0.15,,,0.86,0.000000,,2013-04-19 21:32:00,
2013-04-19 12:02:00,64.0,64.0,-100.00,NNE,18,0.0,0.0,100,0.26,,,1.12,0.000000,,2013-04-19 22:02:00,
2013-04-19 12:12:00,64.0,64.0,-100.00,NNE,18,0.0,0.0,100,0.26,,,1.12,0.000000,,2013-04-19 22:12:00,
2013-04-19 12:22:00,64.0,64.0,-100.00,NNE,18,0.0,0.0,100,0.26,,,1.12,0.000000,,2013-04-19 22:22:00,
2013-04-19 12:33:00,64.0,64.0,-100.00,NNE,18,0.0,0.0,100,0.26,,,1.12,0.000000,,2013-04-19 22:33:00,
2013-04-19 13:02:00,64.0,64.0,-100.00,NNE,18,0.0,0.0,100,0.17,,,1.29,0.000000,,2013-04-19 23:02:00,
2013-04-19 13:11:00,64.0,64.0,-100.00,NNE,18,0.0,0.0,100,0.17,,,1.29,0.000000,,2013-04-19 23:11:00,
2013-04-19 13:22:00,64.0,64.0,-100.00,NNE,18,0.0,0.0,100,0.17,,,1.29,0.000000,,2013-04-19 23:22:00,
2013-04-19 13:31:00,64.0,64.0,-100.00,NNE,18,0.0,0.0,100,0.17,,,1.29,0.000000,,2013-04-19 23:31:00,
2013-04-19 14:02:00,65.0,65.0,-100.00,NNE,14,0.0,0.0,100,0.10,,,1.39,0.000000,,2013-04-20 00:02:00,
2013-04-19 14:12:00,65.0,65.0,-100.00,NNE,14,0.0,0.0,100,0.10,,,1.39,0.000000,,2013-04-20 00:12:00,
2013-04-19 14:21:00,65.0,65.0,-100.00,NNE,14,0.0,0.0,100,0.10,,,1.39,0.000000,,2013-04-20 00:21:00,
2013-04-19 14:31:00,65.0,65.0,-100.00,NNE,14,0.0,0.0,100,0.10,,,1.39,0.000000,,2013-04-20 00:31:00,
2013-04-19 15:01:00,65.0,65.0,-100.00,North,358,0.0,0.0,100,0.26,,,1.62,0.000000,,2013-04-20 01:01:00,
2013-04-19 15:11:00,65.0,65.0,-100.00,North,358,0.0,0.0,100,0.26,,,1.62,0.000000,,2013-04-20 01:11:00,
2013-04-19 15:21:00,65.0,65.0,-100.00,North,358,0.0,0.0,100,0.26,,,1.62,0.000000,,2013-04-20 01:21:00,
2013-04-19 15:32:00,65.0,65.0,-100.00,North,358,0.0,0.0,100,0.26,,,1.62,0.000000,,2013-04-20 01:32:00,
2013-04-19 16:01:00,64.0,64.0,-100.00,North,349,0.0,0.0,100,0.20,,,1.75,0.000000,,2013-04-20 02:01:00,
2013-04-19 16:11:00,64.0,64.0,-100.00,North,349,0.0,0.0,100,0.20,,,1.75,0.000000,,2013-04-20 02:11:00,
2013-04-19 16:21:00,64.0,64.0,-100.00,North,349,0.0,0.0,100,0.20,,,1.75,0.000000,,2013-04-20 02:21:00,
2013-04-19 16:32:00,64.0,64.0,-100.00,North,349,0.0,0.0,100,0.20,,,1.75,0.000000,,2013-04-20 02:32:00,
2013-04-19 17:01:00,64.0,64.0,-100.00,West,261,0.0,0.0,100,0.26,,,2.00,0.000000,,2013-04-20 03:01:00,
2013-04-19 17:11:00,64.0,64.0,-100.00,West,261,0.0,0.0,100,0.26,,,2.00,0.000000,,2013-04-20 03:11:00,
2013-04-19 17:21:00,64.0,64.0,-100.00,West,261,0.0,0.0,100,0.26,,,2.00,0.000000,,2013-04-20 03:21:00,
2013-04-19 17:33:00,64.0,64.0,-100.00,West,261,0.0,0.0,100,0.26,,,2.00,0.000000,,2013-04-20 03:33:00,
2013-04-19 18:03:00,64.0,64.0,-100.00,NW,320,0.0,0.0,100,0.28,,,2.27,0.000000,,2013-04-20 04:03:00,
2013-04-19 18:12:00,64.0,64.0,-100.00,NW,320,0.0,0.0,100,0.28,,,2.27,0.000000,,2013-04-20 04:12:00,
2013-04-19 18:23:00,64.0,64.0,-100.00,NW,320,0.0,0.0,100,0.28,,,2.27,0.000000,,2013-04-20 04:23:00,
2013-04-19 18:32:00,64.0,64.0,-100.00,NW,320,0.0,0.0,100,0.28,,,2.27,0.000000,,2013-04-20 04:32:00,
2013-04-19 19:02:00,64.0,64.0,-100.00,NNE,21,0.0,0.0,100,0.13,,,2.36,0.000000,,2013-04-20 05:02:00,
2013-04-19 19:12:00,64.0,64.0,-100.00,NNE,21,0.0,0.0,100,0.13,,,2.36,0.000000,,2013-04-20 05:12:00,
2013-04-19 19:21:00,64.0,64.0,-100.00,NNE,21,0.0,0.0,100,0.13,,,2.36,0.000000,,2013-04-20 05:21:00,
2013-04-19 19:32:00,64.0,64.0,-100.00,NNE,21,0.0,0.0,100,0.13,,,2.36,0.000000,,2013-04-20 05:32:00,
2013-04-19 20:01:00,64.0,64.0,-100.00,North,352,0.0,0.0,100,0.08,,,2.43,0.000000,,2013-04-20 06:01:00,
2013-04-19 20:12:00,64.0,64.0,-100.00,North,352,0.0,0.0,100,0.08,,,2.43,0.000000,,2013-04-20 06:12:00,
2013-04-19 20:21:00,64.0,64.0,-100.00,North,352,0.0,0.0,100,0.08,,,2.43,0.000000,,2013-04-20 06:21:00,
2013-04-19 20:31:00,64.0,64.0,-100.00,North,352,0.0,0.0,100,0.08,,,2.43,0.000000,,2013-04-20 06:31:00,
2013-04-19 21:01:00,64.0,64.0,-100.00,NNE,21,0.0,0.0,100,0.01,,,2.44,0.000000,,2013-04-20 07:01:00,
2013-04-19 21:11:00,64.0,64.0,-100.00,NNE,21,0.0,0.0,100,0.01,,,2.44,0.000000,,2013-04-20 07:11:00,
2013-04-19 21:21:00,64.0,64.0,-100.00,NNE,21,0.0,0.0,100,0.01,,,2.44,0.000000,,2013-04-20 07:21:00,
2013-04-19 21:31:00,64.0,64.0,-100.00,NNE,21,0.0,0.0,100,0.01,,,2.44,0.000000,,2013-04-20 07:31:00,
2013-04-19 22:01:00,64.0,64.0,-100.00,North,6,0.0,0.0,100,0.01,,,2.44,0.000000,,2013-04-20 08:01:00,
2013-04-19 22:11:00,64.0,64.0,-100.00,North,6,0.0,0.0,100,0.01,,,2.44,0.000000,,2013-04-20 08:11:00,
2013-04-19 22:21:00,64.0,64.0,-100.00,North,6,0.0,0.0,100,0.01,,,2.44,0.000000,,2013-04-20 08:21:00,
2013-04-19 22:31:00,64.0,64.0,-100.00,North,6,0.0,0.0,100,0.01,,,2.44,0.000000,,2013-04-20 08:31:00,
2013-04-19 23:01:00,64.0,64.0,-100.00,North,353,0.0,0.0,100,0.01,,,2.45,0.000000,,2013-04-20 09:01:00,
2013-04-19 23:12:00,64.0,64.0,-100.00,North,353,0.0,0.0,100,0.01,,,2.45,0.000000,,2013-04-20 09:12:00,
2013-04-19 23:21:00,64.0,64.0,-100.00,North,353,0.0,0.0,100,0.01,,,2.45,0.000000,,2013-04-20 09:21:00,
2013-04-19 23:32:00,64.0,64.0,-100.00,North,353,0.0,0.0,100,0.01,,,2.45,0.000000,,2013-04-20 09:32:00,